York Haven, Pennsylvania
Current Conditions -  °F | °C
As of 1:04 AM on Monday 26 Jan 2015 (Local Time) from KMDT Reporting Station
Light Snow Light Snow  
Wind Chill: 20°   Ceiling: 1400
Heat Index: 29°   Visibility: 2mi
Dew Point: 26°   Wind: 10mph
Humidity: 89%   Direction: 70°ENE
Pressure: 29.9"   Gusts: NA
Location:  40.11°N, 76.72°W
Report Text: KMDT 260604Z 07009KT 2SM -SN BKN014 OVC020 M02/M03 A2990 RMK AO2 P0001 T10171033
Loading
Personal Weather Stations






























Interactive Weather Map New forecast layout! Learn more

10-Day Weather Forecast

Advertisements
Track Severe Weather on mobile